Terminal Aerodrome Forecast
Issued by NWS Paducah, KY

Home | Current Version | Previous Version | Text Only | Print | Product List | Glossary On
Versions: 1 2 3 4 5 6 7 8 9 10 11 12 13 14 15 16 17 18 19 20
509
FTUS43 KPAH 231722 AAA
TAFEVV
TAF AMD
KEVV 231722Z 2317/2418 27012KT 4SM BR VCSH BKN009 OVC020
     FM232000 26009KT P6SM VCSH OVC025
     FM240200 25006KT P6SM BKN060
     FM241400 27015G27KT P6SM BKN120=

USA.gov is the U.S. government's official web portal to all federal, state and local government web resources and services.